createdAt,value
2023-05-12T00:03:36.755Z,15.60
2023-05-12T00:08:40.983Z,15.60
2023-05-12T00:13:43.987Z,15.80
2023-05-12T00:18:46.755Z,15.50
2023-05-12T00:23:50.847Z,15.30
2023-05-12T00:28:53.489Z,15.50
2023-05-12T00:33:56.137Z,15.60
2023-05-12T00:39:00.122Z,15.40
2023-05-12T00:44:02.822Z,15.40
2023-05-12T00:49:05.994Z,15.30
2023-05-12T00:54:10.129Z,15.40
2023-05-12T00:59:12.812Z,15.50
2023-05-12T01:04:15.643Z,15.40
2023-05-12T01:09:20.433Z,15.20
2023-05-12T01:14:23.186Z,14.90
2023-05-12T01:19:39.693Z,14.80
2023-05-12T01:24:48.742Z,14.70
2023-05-12T01:29:53.949Z,14.80
2023-05-12T01:34:56.668Z,14.80
2023-05-12T01:39:59.366Z,14.80
2023-05-12T01:45:03.395Z,14.70
2023-05-12T01:50:06.797Z,14.80
2023-05-12T01:55:09.865Z,14.70
2023-05-12T02:00:14.726Z,14.60
2023-05-12T02:05:17.548Z,14.60
2023-05-12T02:10:20.674Z,14.40
2023-05-12T02:15:25.677Z,14.40
2023-05-12T02:20:29.641Z,14.40
2023-05-12T02:25:32.288Z,14.40
2023-05-12T02:30:36.256Z,14.40
2023-05-12T02:35:38.925Z,14.20
2023-05-12T02:40:41.590Z,14.20
2023-05-12T02:45:45.684Z,14.30
2023-05-12T02:50:48.310Z,14.20
2023-05-12T02:55:51.034Z,14.00
2023-05-12T03:01:06.591Z,13.90
2023-05-12T03:06:13.206Z,13.90
2023-05-12T03:11:15.929Z,14.00
2023-05-12T03:16:20.330Z,14.00
2023-05-12T03:21:23.146Z,13.80
2023-05-12T03:26:25.845Z,13.80
2023-05-12T03:31:29.887Z,13.70
2023-05-12T03:36:32.559Z,13.60
2023-05-12T03:41:35.249Z,13.90
2023-05-12T03:46:39.356Z,14.10
2023-05-12T03:51:42.136Z,14.20
2023-05-12T03:56:44.867Z,14.10
2023-05-12T04:01:48.860Z,14.00
2023-05-12T04:06:52.169Z,13.90
2023-05-12T04:11:54.810Z,13.80
2023-05-12T04:16:58.917Z,13.80
2023-05-12T04:22:01.691Z,13.90
2023-05-12T04:27:04.414Z,13.90
2023-05-12T04:32:09.362Z,14.10
2023-05-12T04:37:12.089Z,14.20
2023-05-12T04:42:14.867Z,14.40
2023-05-12T04:47:18.903Z,14.60
2023-05-12T04:52:23.476Z,14.90
2023-05-12T04:57:27.715Z,15.30
2023-05-12T05:02:46.507Z,15.50
2023-05-12T05:07:55.310Z,15.80
2023-05-12T05:13:08.519Z,15.70
2023-05-12T05:18:14.639Z,15.70
2023-05-12T05:23:17.324Z,16.20
2023-05-12T05:28:19.941Z,16.70
2023-05-12T05:33:23.921Z,17.50
2023-05-12T05:38:26.644Z,17.50
2023-05-12T05:43:29.830Z,17.20
2023-05-12T05:48:33.935Z,17.30
2023-05-12T05:53:36.563Z,17.70
2023-05-12T05:58:39.197Z,18.30
2023-05-12T06:03:44.248Z,18.40
2023-05-12T06:08:46.945Z,17.90
2023-05-12T06:13:49.627Z,18.10
2023-05-12T06:18:53.690Z,18.40
2023-05-12T06:23:56.873Z,18.70
2023-05-12T06:28:59.519Z,19.40
2023-05-12T06:34:04.223Z,19.40
2023-05-12T06:39:06.923Z,20.10
2023-05-12T06:44:12.653Z,20.00
2023-05-12T06:49:16.652Z,19.80
2023-05-12T06:54:19.367Z,20.10
2023-05-12T06:59:22.019Z,20.30
2023-05-12T07:04:26.788Z,20.50
2023-05-12T07:09:29.521Z,20.80
2023-05-12T07:14:32.269Z,21.20
2023-05-12T07:19:36.544Z,21.60
2023-05-12T07:24:39.259Z,21.90
2023-05-12T07:29:41.941Z,22.00
2023-05-12T07:34:45.967Z,21.90
2023-05-12T07:39:48.648Z,21.70
2023-05-12T07:44:51.334Z,21.80
2023-05-12T07:49:55.461Z,21.70
2023-05-12T07:54:58.384Z,21.80
2023-05-12T08:00:01.037Z,21.90
2023-05-12T08:05:06.149Z,22.00
2023-05-12T08:10:10.046Z,22.30
2023-05-12T08:15:12.846Z,22.90
2023-05-12T08:20:16.819Z,23.20
2023-05-12T08:25:19.843Z,24.90
2023-05-12T08:30:22.729Z,26.00
2023-05-12T08:35:27.906Z,26.00
2023-05-12T08:40:32.331Z,26.90
2023-05-12T08:45:38.251Z,26.90
2023-05-12T08:50:43.614Z,26.80
2023-05-12T08:56:01.401Z,27.90
2023-05-12T09:01:14.664Z,27.70
2023-05-12T09:06:19.538Z,26.80
2023-05-12T09:11:23.102Z,26.80
2023-05-12T09:16:29.754Z,25.40
2023-05-12T09:21:34.638Z,26.30
2023-05-12T09:26:46.708Z,25.50
2023-05-12T09:31:53.263Z,25.80
2023-05-12T09:37:02.020Z,27.80
2023-05-12T09:42:05.208Z,30.50
2023-05-12T09:47:08.440Z,32.50
2023-05-12T09:52:12.536Z,33.70
2023-05-12T09:57:17.341Z,36.20
2023-05-12T10:02:20.966Z,35.80
2023-05-12T10:07:27.568Z,36.50
2023-05-12T10:12:30.408Z,33.80
2023-05-12T10:17:33.647Z,31.90
2023-05-12T10:22:39.832Z,33.10
2023-05-12T10:27:44.307Z,33.60
2023-05-12T10:32:48.684Z,32.20
2023-05-12T10:37:53.278Z,33.10
2023-05-12T10:43:00.884Z,35.70
2023-05-12T10:48:09.699Z,39.30
2023-05-12T10:53:14.906Z,43.20
2023-05-12T10:58:19.371Z,42.30
2023-05-12T11:03:27.487Z,34.30
2023-05-12T11:08:36.970Z,35.00
2023-05-12T11:13:41.919Z,38.60
2023-05-12T11:18:46.781Z,36.90
2023-05-12T11:23:53.626Z,33.90
2023-05-12T11:28:58.675Z,31.30
2023-05-12T11:34:12.777Z,29.80
2023-05-12T11:39:20.995Z,28.50
2023-05-12T11:44:27.347Z,28.20
2023-05-12T11:49:32.767Z,29.50
2023-05-12T11:54:37.822Z,33.00
2023-05-12T11:59:42.892Z,37.00
2023-05-12T12:04:46.491Z,36.60
2023-05-12T12:21:21.929Z,28.80
2023-05-12T12:37:56.998Z,28.80
2023-05-12T12:43:21.192Z,29.90
2023-05-12T12:48:36.940Z,29.40
2023-05-12T12:54:05.602Z,28.40
2023-05-12T12:59:18.181Z,27.20
2023-05-12T13:04:34.338Z,26.80
2023-05-12T13:10:04.074Z,26.90
2023-05-12T13:15:38.937Z,28.30
2023-05-12T13:21:10.542Z,29.80
2023-05-12T13:32:03.302Z,30.00
2023-05-12T13:37:34.865Z,31.80
2023-05-12T13:42:44.745Z,33.30
2023-05-12T13:47:51.972Z,33.50
2023-05-12T13:52:57.112Z,32.40
2023-05-12T13:58:07.425Z,31.40
2023-05-12T14:03:15.640Z,30.10
2023-05-12T14:08:27.967Z,28.70
2023-05-12T14:13:45.928Z,27.90
2023-05-12T14:19:00.057Z,27.50
2023-05-12T14:24:07.724Z,24.70
2023-05-12T14:29:11.437Z,22.30
2023-05-12T14:34:19.315Z,21.70
2023-05-12T14:39:21.979Z,21.50
2023-05-12T14:44:24.641Z,21.60
2023-05-12T14:49:28.606Z,21.90
2023-05-12T14:54:31.317Z,22.00
2023-05-12T14:59:34.033Z,22.30
2023-05-12T15:04:38.026Z,22.80
2023-05-12T15:09:40.685Z,23.50
2023-05-12T15:14:43.331Z,24.20
2023-05-12T15:19:47.655Z,24.60
2023-05-12T15:25:05.737Z,25.00
2023-05-12T15:30:54.587Z,25.90
2023-05-12T15:35:58.638Z,27.20
2023-05-12T15:41:01.357Z,28.10
2023-05-12T15:46:04.614Z,28.10
2023-05-12T15:51:08.716Z,27.60
2023-05-12T15:56:11.456Z,26.50
2023-05-12T16:01:14.151Z,25.10
2023-05-12T16:06:18.777Z,23.30
2023-05-12T16:11:21.548Z,21.90
2023-05-12T16:16:24.377Z,21.20
2023-05-12T16:21:28.521Z,21.10
2023-05-12T16:26:31.348Z,21.10
2023-05-12T16:31:34.053Z,21.00
2023-05-12T16:36:38.085Z,20.80
2023-05-12T16:41:40.978Z,20.80
2023-05-12T16:46:43.724Z,21.00
2023-05-12T16:51:47.705Z,20.50
2023-05-12T16:56:50.436Z,20.20
2023-05-12T17:01:53.184Z,20.00
2023-05-12T17:06:57.901Z,19.70
2023-05-12T17:12:00.637Z,19.40
2023-05-12T17:17:03.393Z,19.30
2023-05-12T17:22:07.506Z,19.20
2023-05-12T17:27:10.360Z,19.30
2023-05-12T17:32:13.058Z,19.20
2023-05-12T17:37:17.174Z,19.30
2023-05-12T17:42:20.223Z,19.90
2023-05-12T17:47:23.030Z,20.10
2023-05-12T17:52:27.387Z,19.90
2023-05-12T17:57:30.125Z,20.00
2023-05-12T18:02:32.850Z,20.30
2023-05-12T18:07:37.513Z,20.30
2023-05-12T18:12:40.223Z,20.30
2023-05-12T18:17:42.977Z,20.10
2023-05-12T18:22:47.072Z,20.00
2023-05-12T18:27:49.788Z,19.60
2023-05-12T18:32:52.550Z,19.10
2023-05-12T18:37:56.720Z,18.70
2023-05-12T18:42:59.563Z,18.40
2023-05-12T18:48:02.472Z,18.20
2023-05-12T18:53:06.822Z,18.00
2023-05-12T18:58:09.486Z,17.70
2023-05-12T19:03:12.335Z,17.50
2023-05-12T19:08:17.547Z,17.30
2023-05-12T19:13:20.273Z,17.10
2023-05-12T19:18:23.240Z,16.90
2023-05-12T19:23:27.894Z,17.10
2023-05-12T19:28:30.628Z,17.10
2023-05-12T19:33:34.846Z,17.00
2023-05-12T19:38:40.075Z,16.80
2023-05-12T19:43:42.712Z,16.60
2023-05-12T19:48:45.402Z,16.40
2023-05-12T19:53:49.497Z,16.00
2023-05-12T19:58:52.575Z,15.70
2023-05-12T20:03:55.336Z,15.50
2023-05-12T20:08:59.412Z,15.30
2023-05-12T20:14:02.285Z,15.00
2023-05-12T20:19:05.112Z,14.90
2023-05-12T20:24:09.823Z,14.80
2023-05-12T20:29:13.177Z,14.50
2023-05-12T20:34:16.093Z,14.50
2023-05-12T20:39:20.180Z,14.20
2023-05-12T20:44:22.983Z,14.30
2023-05-12T20:49:25.797Z,14.10
2023-05-12T20:54:29.747Z,14.00
2023-05-12T20:59:32.406Z,13.90
2023-05-12T21:04:35.032Z,13.70
2023-05-12T21:09:39.208Z,13.50
2023-05-12T21:14:43.286Z,13.50
2023-05-12T21:19:46.097Z,13.60
2023-05-12T21:24:51.660Z,13.80
2023-05-12T21:29:54.597Z,13.50
2023-05-12T21:34:57.521Z,13.30
2023-05-12T21:40:01.509Z,13.40
2023-05-12T21:45:04.460Z,13.40
2023-05-12T21:50:07.606Z,13.40
2023-05-12T21:55:12.704Z,13.10
2023-05-12T22:00:18.882Z,12.90
2023-05-12T22:05:21.969Z,12.70
2023-05-12T22:10:26.008Z,12.50
2023-05-12T22:15:28.753Z,12.30
2023-05-12T22:20:31.443Z,12.20
2023-05-12T22:25:35.600Z,12.40
2023-05-12T22:30:38.330Z,12.50
2023-05-12T22:35:40.999Z,12.70
2023-05-12T22:40:44.981Z,12.70
2023-05-12T22:45:51.260Z,12.60
2023-05-12T22:50:54.687Z,12.30
2023-05-12T22:55:58.652Z,11.90
2023-05-12T23:01:02.155Z,11.50
2023-05-12T23:06:05.077Z,11.70
2023-05-12T23:11:09.872Z,11.70
2023-05-12T23:16:12.545Z,11.70
2023-05-12T23:21:15.284Z,11.90
2023-05-12T23:26:19.264Z,11.80
2023-05-12T23:31:21.986Z,11.60
2023-05-12T23:36:24.751Z,11.50
2023-05-12T23:41:31.568Z,11.30
2023-05-12T23:46:34.374Z,11.50
2023-05-12T23:51:37.073Z,11.40
2023-05-12T23:56:41.214Z,11.20
